.
WxDataArchive / Data Records for 2007-03-31
2007-03-30 March 2007 2007-04-01

Data Records for Saturday, 31 March 2007

Time	Temp	Chill	HIndex	Humid	Dewpt	 Wind 	HiWind	WindDir	Rain 	Barom 
-----	----	-----	------	-----	-----	------	------	-------	-----	----- 
00:00	51.1	51.1	51.1	44	30.0	2	9	112	0.00	30.109 
00:05	51.0	51.0	51.0	44	29.9	3	8	90	0.00	30.103 
00:10	51.0	51.0	51.0	43	29.3	3	9	112	0.00	30.099 
00:15	51.0	51.0	51.0	43	29.3	3	10	112	0.00	30.097 
00:20	50.8	50.8	50.8	43	29.1	2	6	112	0.00	30.100 
00:25	50.8	50.8	50.8	44	29.7	2	5	90	0.00	30.101 
00:30	50.7	50.7	50.7	44	29.6	1	5	112	0.00	30.102 
00:35	50.5	50.5	50.5	43	28.8	3	10	112	0.00	30.103 
00:40	50.4	50.4	50.4	44	29.3	2	5	90	0.00	30.102 
00:45	50.2	50.2	50.2	47	30.8	1	4	90	0.00	30.106 
00:50	50.1	50.1	50.1	46	30.1	1	5	112	0.00	30.103 
00:55	49.9	49.9	49.9	50	32.0	1	3	112	0.00	30.101 
01:00	49.8	49.8	49.8	52	32.9	0	3	112	0.00	30.100 
01:05	49.5	49.5	49.5	54	33.6	1	4	112	0.00	30.096 
01:10	49.2	49.2	49.2	56	34.2	1	4	90	0.00	30.095 
01:15	48.9	48.9	48.9	60	35.6	1	3	90	0.00	30.093 
01:20	48.6	48.6	48.6	61	35.8	2	5	90	0.00	30.092 
01:25	48.3	48.3	48.3	62	35.9	2	10	90	0.00	30.089 
01:30	48.2	48.2	48.2	62	35.8	2	7	90	0.00	30.086 
01:35	48.0	48.0	48.0	61	35.2	3	6	112	0.00	30.087 
01:40	48.0	48.0	48.0	61	35.2	3	7	112	0.00	30.085 
01:45	48.0	48.0	48.0	60	34.8	1	5	112	0.00	30.082 
01:50	48.0	48.0	48.0	60	34.8	2	6	112	0.00	30.079 
01:55	48.0	48.0	48.0	62	35.6	2	6	112	0.00	30.077 
02:00	47.9	47.9	47.9	60	34.7	2	7	90	0.00	30.072 
02:05	47.7	47.7	47.7	60	34.5	2	5	112	0.00	30.073 
02:10	47.9	47.9	47.9	59	34.3	2	6	112	0.00	30.074 
02:15	47.9	47.9	47.9	59	34.3	3	7	112	0.00	30.069 
02:20	47.6	46.1	47.6	63	35.6	4	10	112	0.02	30.067 
02:25	46.8	46.8	46.8	67	36.4	3	6	112	0.00	30.066 
02:30	46.2	46.2	46.2	67	35.9	3	7	112	0.00	30.065 
02:35	46.1	44.4	46.1	67	35.8	4	10	112	0.00	30.063 
02:40	46.0	46.0	46.0	67	35.7	2	10	112	0.01	30.063 
02:45	45.7	43.9	45.7	68	35.8	4	11	112	0.00	30.059 
02:50	45.2	43.3	45.2	68	35.3	4	11	112	0.01	30.061 
02:55	44.8	44.8	44.8	72	36.3	2	6	112	0.00	30.060 
03:00	44.5	44.5	44.5	72	36.0	3	10	90	0.00	30.056 
03:05	44.3	44.3	44.3	73	36.2	3	9	112	0.00	30.054 
03:10	44.2	41.4	44.2	70	35.0	5	10	112	0.00	30.052 
03:15	44.2	41.4	44.2	69	34.7	5	12	112	0.00	30.053 
03:20	44.3	42.3	44.3	71	35.5	4	10	90	0.00	30.053 
03:25	44.2	42.2	44.2	69	34.7	4	9	112	0.00	30.051 
03:30	44.2	42.2	44.2	69	34.7	4	8	112	0.00	30.052 
03:35	44.2	44.2	44.2	69	34.7	3	7	90	0.00	30.052 
03:40	44.2	44.2	44.2	69	34.7	3	10	90	0.00	30.050 
03:45	44.1	44.1	44.1	69	34.6	3	8	112	0.00	30.052 
03:50	44.2	44.2	44.2	69	34.7	3	8	112	0.00	30.055 
03:55	44.2	44.2	44.2	70	35.0	2	8	112	0.00	30.050 
04:00	44.2	44.2	44.2	69	34.7	3	9	112	0.00	30.049 
04:05	44.2	44.2	44.2	69	34.7	3	6	112	0.00	30.049 
04:10	44.2	42.2	44.2	67	33.9	4	9	112	0.00	30.047 
04:15	44.2	44.2	44.2	69	34.7	3	9	112	0.00	30.046 
04:20	44.2	44.2	44.2	69	34.7	3	9	112	0.00	30.045 
04:25	44.2	42.2	44.2	70	35.0	4	9	112	0.00	30.045 
04:30	44.1	41.3	44.1	70	35.0	5	11	112	0.00	30.045 
04:35	44.1	44.1	44.1	70	35.0	3	6	112	0.00	30.045 
04:40	44.1	44.1	44.1	71	35.3	3	7	112	0.00	30.041 
04:45	44.1	44.1	44.1	70	35.0	3	7	112	0.00	30.038 
04:50	44.1	44.1	44.1	70	35.0	3	7	112	0.00	30.040 
04:55	44.1	44.1	44.1	70	35.0	2	6	112	0.00	30.044 
05:00	44.1	44.1	44.1	68	34.2	2	4	112	0.00	30.046 
05:05	44.2	44.2	44.2	69	34.7	3	6	90	0.00	30.046 
05:10	44.2	44.2	44.2	69	34.7	3	9	90	0.00	30.046 
05:15	44.1	44.1	44.1	68	34.2	3	6	112	0.00	30.051 
05:20	44.1	44.1	44.1	69	34.6	2	5	112	0.00	30.052 
05:25	44.1	44.1	44.1	69	34.6	3	5	112	0.00	30.050 
05:30	44.1	44.1	44.1	71	35.3	3	6	112	0.00	30.041 
05:35	44.1	44.1	44.1	71	35.3	2	5	112	0.00	30.040 
05:40	44.1	44.1	44.1	72	35.7	2	4	112	0.00	30.043 
05:45	44.1	44.1	44.1	70	35.0	2	4	112	0.00	30.047 
05:50	44.1	44.1	44.1	70	35.0	3	5	112	0.00	30.043 
05:55	44.1	44.1	44.1	69	34.6	3	5	90	0.00	30.046 
06:00	44.1	44.1	44.1	69	34.6	3	7	112	0.00	30.048 
06:05	44.1	42.1	44.1	67	33.9	4	9	90	0.00	30.049 
06:10	44.1	42.1	44.1	68	34.2	4	9	112	0.00	30.049 
06:15	44.1	44.1	44.1	68	34.2	3	9	90	0.00	30.047 
06:20	44.1	42.1	44.1	67	33.9	4	10	90	0.00	30.047 
06:25	44.1	42.1	44.1	67	33.9	4	9	112	0.00	30.049 
06:30	44.1	42.1	44.1	68	34.2	4	10	112	0.00	30.046 
06:35	44.1	44.1	44.1	68	34.2	3	10	90	0.00	30.048 
06:40	44.1	44.1	44.1	69	34.6	3	9	112	0.00	30.053 
06:45	44.1	44.1	44.1	68	34.2	2	7	112	0.00	30.054 
06:50	43.9	41.8	43.9	68	34.0	4	9	112	0.00	30.056 
06:55	43.9	43.9	43.9	67	33.7	3	7	112	0.00	30.056 
07:00	43.8	41.7	43.8	68	33.9	4	12	90	0.00	30.056 
07:05	43.8	43.8	43.8	68	33.9	3	9	112	0.00	30.059 
07:10	43.6	41.5	43.6	67	33.4	4	12	112	0.00	30.052 
07:15	43.6	40.7	43.6	68	33.7	5	11	112	0.00	30.045 
07:20	43.6	40.7	43.6	68	33.7	5	14	112	0.00	30.049 
07:25	43.6	43.6	43.6	68	33.7	3	7	112	0.00	30.059 
07:30	43.8	41.7	43.8	66	33.2	4	10	112	0.00	30.059 
07:35	43.8	40.9	43.8	66	33.2	5	11	112	0.00	30.062 
07:40	43.9	43.9	43.9	67	33.7	3	11	112	0.00	30.064 
07:45	43.9	43.9	43.9	66	33.3	2	5	112	0.00	30.062 
07:50	44.1	42.1	44.1	66	33.5	4	9	112	0.00	30.064 
07:55	44.1	42.1	44.1	67	33.9	4	8	112	0.00	30.061 
08:00	44.1	44.1	44.1	66	33.5	3	9	112	0.00	30.060 
08:05	44.1	44.1	44.1	67	33.9	3	10	112	0.00	30.063 
08:10	44.2	44.2	44.2	67	33.9	3	7	112	0.00	30.062 
08:15	44.3	42.3	44.3	65	33.3	4	10	112	0.00	30.060 
08:20	44.3	42.3	44.3	66	33.7	4	9	112	0.00	30.060 
08:25	44.5	44.5	44.5	66	33.9	3	6	112	0.00	30.061 
08:30	44.5	44.5	44.5	66	33.9	3	6	90	0.00	30.059 
08:35	44.6	44.6	44.6	66	34.0	3	5	90	0.00	30.060 
08:40	44.8	44.8	44.8	66	34.1	3	7	112	0.00	30.060 
08:45	44.8	44.8	44.8	66	34.1	3	7	90	0.00	30.058 
08:50	44.9	43.0	44.9	67	34.6	4	7	112	0.00	30.049 
08:55	45.1	43.2	45.1	67	34.8	4	11	90	0.00	30.049 
09:00	45.2	45.2	45.2	67	34.9	3	6	112	0.00	30.044 
09:05	45.2	43.3	45.2	68	35.3	4	11	112	0.00	30.045 
09:10	45.2	43.3	45.2	66	34.5	4	9	112	0.00	30.045 
09:15	45.2	43.3	45.2	65	34.1	4	10	112	0.00	30.046 
09:20	45.4	45.4	45.4	66	34.7	3	6	112	0.00	30.051 
09:25	45.4	43.6	45.4	66	34.7	4	7	112	0.00	30.047 
09:30	45.4	43.6	45.4	67	35.1	4	10	112	0.00	30.051 
09:35	45.7	45.7	45.7	67	35.4	3	7	112	0.00	30.050 
09:40	45.8	45.8	45.8	68	35.8	2	5	112	0.00	30.048 
09:45	46.0	46.0	46.0	67	35.7	3	6	112	0.00	30.047 
09:50	46.0	46.0	46.0	66	35.3	3	7	112	0.00	30.052 
09:55	46.1	46.1	46.1	65	35.0	3	7	112	0.00	30.056 
10:00	46.1	44.4	46.1	67	35.8	4	9	112	0.00	30.050 
10:05	46.0	43.5	46.0	70	36.8	5	10	112	0.00	30.051 
10:10	46.0	44.2	46.0	70	36.8	4	9	112	0.00	30.048 
10:15	46.1	44.4	46.1	70	36.9	4	10	112	0.00	30.047 
10:20	46.1	44.4	46.1	70	36.9	4	7	112	0.00	30.047 
10:25	46.4	44.7	46.4	73	38.2	4	7	112	0.00	30.045 
10:30	46.4	44.7	46.4	72	37.9	4	9	112	0.00	30.044 
10:35	46.5	44.8	46.5	73	38.3	4	10	112	0.00	30.041 
10:40	46.4	44.0	46.4	73	38.2	5	8	112	0.00	30.037 
10:45	46.5	44.8	46.5	73	38.3	4	9	112	0.00	30.036 
10:50	46.5	44.8	46.5	73	38.3	4	6	90	0.00	30.040 
10:55	46.5	44.1	46.5	73	38.3	5	7	90	0.00	30.033 
11:00	46.5	44.8	46.5	73	38.3	4	8	112	0.00	30.032 
11:05	46.7	44.3	46.7	74	38.9	5	14	90	0.00	30.032 
11:10	46.8	45.2	46.8	75	39.3	4	10	112	0.00	30.029 
11:15	46.7	44.3	46.7	74	38.9	5	10	112	0.00	30.027 
11:20	46.5	44.8	46.5	77	39.7	4	7	112	0.00	30.028 
11:25	46.4	44.0	46.4	76	39.3	5	10	90	0.00	30.027 
11:30	46.1	43.6	46.1	78	39.6	5	12	112	0.01	30.019 
11:35	45.8	43.3	45.8	80	40.0	5	11	112	0.00	30.017 
11:40	45.8	44.0	45.8	81	40.3	4	8	112	0.00	30.016 
11:45	45.7	45.7	45.7	82	40.5	3	6	90	0.00	30.019 
11:50	45.8	44.0	45.8	81	40.3	4	7	112	0.00	30.016 
11:55	45.7	43.9	45.7	81	40.2	4	9	112	0.00	30.015 
12:00	45.7	43.9	45.7	82	40.5	4	11	112	0.00	30.016 
12:05	45.7	45.7	45.7	82	40.5	3	6	112	0.00	30.017 
12:10	45.8	45.8	45.8	82	40.6	3	7	90	0.00	30.016 
12:15	46.0	44.2	46.0	82	40.8	4	6	90	0.00	30.016 
12:20	46.0	43.5	46.0	80	40.2	5	12	90	0.00	30.017 
12:25	46.1	46.1	46.1	81	40.6	3	7	112	0.00	30.015 
12:30	46.1	44.4	46.1	79	40.0	4	11	112	0.00	30.010 
12:35	46.2	44.5	46.2	79	40.1	4	11	90	0.00	30.009 
12:40	46.4	44.0	46.4	80	40.6	5	12	112	0.00	30.008 
12:45	46.8	46.8	46.8	81	41.3	3	10	112	0.00	30.004 
12:50	47.1	45.5	47.1	79	40.9	4	10	112	0.00	30.001 
12:55	47.3	45.0	47.3	78	40.8	5	10	112	0.00	30.005 
13:00	47.6	47.6	47.6	79	41.4	3	6	112	0.00	30.006 
13:05	47.9	46.4	47.9	78	41.4	4	9	90	0.00	30.003 
13:10	47.9	45.8	47.9	77	41.0	5	10	112	0.00	30.000 
13:15	48.0	45.9	48.0	75	40.5	5	10	112	0.00	30.002 
13:20	48.2	46.8	48.2	76	41.0	4	8	112	0.00	29.998 
13:25	48.6	46.6	48.6	75	41.0	5	11	112	0.00	29.995 
13:30	48.8	46.2	48.8	74	40.9	6	13	112	0.00	29.983 
13:35	49.2	47.3	49.2	75	41.6	5	10	112	0.00	29.981 
13:40	49.4	47.5	49.4	74	41.5	5	11	112	0.00	29.979 
13:45	49.6	48.4	49.6	75	42.0	4	11	112	0.00	29.978 
13:50	49.8	48.6	49.8	74	41.9	4	9	112	0.00	29.978 
13:55	49.9	48.8	49.9	73	41.6	4	7	112	0.00	29.972 
14:00	50.1	50.1	50.1	71	41.1	5	9	90	0.00	29.970 
14:05	50.1	50.1	50.1	73	41.8	4	10	112	0.00	29.972 
14:10	50.4	50.4	50.4	73	42.1	3	7	90	0.00	29.971 
14:15	50.7	50.7	50.7	73	42.4	4	8	112	0.00	29.970 
14:20	51.0	51.0	51.0	71	41.9	3	10	90	0.00	29.970 
14:25	51.3	51.3	51.3	71	42.2	3	7	90	0.00	29.969 
14:30	51.7	51.7	51.7	69	41.9	4	13	90	0.01	29.969 
14:35	51.9	51.9	51.9	68	41.7	5	10	90	0.00	29.967 
14:40	51.9	51.9	51.9	69	42.1	5	11	112	0.00	29.965 
14:45	52.2	52.2	52.2	67	41.6	7	12	112	0.00	29.958 
14:50	52.2	52.2	52.2	67	41.6	6	12	112	0.00	29.956 
14:55	52.2	52.2	52.2	67	41.6	5	7	112	0.00	29.963 
15:00	52.3	52.3	52.3	67	41.7	5	11	112	0.00	29.963 
15:05	52.5	52.5	52.5	67	41.9	5	10	112	0.00	29.966 
15:10	52.6	52.6	52.6	67	42.0	4	9	112	0.00	29.966 
15:15	52.9	52.9	52.9	68	42.6	3	7	90	0.00	29.960 
15:20	53.1	53.1	53.1	67	42.4	4	11	112	0.00	29.959 
15:25	52.9	52.9	52.9	66	41.9	5	11	112	0.00	29.958 
15:30	53.1	53.1	53.1	67	42.4	5	11	112	0.00	29.942 
15:35	53.3	53.3	53.3	66	42.2	5	12	112	0.00	29.948 
15:40	53.3	53.3	53.3	66	42.2	6	12	90	0.00	29.941 
15:45	53.3	53.3	53.3	67	42.6	6	10	112	0.00	29.941 
15:50	53.6	53.6	53.6	65	42.1	5	9	112	0.00	29.939 
15:55	53.6	53.6	53.6	67	42.9	4	10	112	0.00	29.949 
16:00	53.6	53.6	53.6	66	42.5	6	12	90	0.00	29.934 
16:05	53.3	53.3	53.3	66	42.2	7	13	112	0.00	29.929 
16:10	53.3	53.3	53.3	67	42.6	5	10	112	0.00	29.931 
16:15	53.3	53.3	53.3	67	42.6	7	12	90	0.00	29.932 
16:20	53.3	53.3	53.3	67	42.6	5	10	112	0.00	29.935 
16:25	53.3	53.3	53.3	68	43.0	7	14	112	0.00	29.929 
16:30	53.3	53.3	53.3	67	42.6	6	10	112	0.00	29.933 
16:35	53.5	53.5	53.5	67	42.8	5	11	112	0.00	29.932 
16:40	53.6	53.6	53.6	68	43.3	4	8	90	0.00	29.927 
16:45	53.8	53.8	53.8	67	43.1	4	9	90	0.00	29.926 
16:50	53.8	53.8	53.8	65	42.3	4	10	90	0.00	29.926 
16:55	53.5	53.5	53.5	66	42.4	6	13	112	0.00	29.921 
17:00	53.6	53.6	53.6	67	42.9	4	11	90	0.00	29.918 
17:05	53.5	53.5	53.5	66	42.4	6	11	90	0.00	29.915 
17:10	53.5	53.5	53.5	66	42.4	5	10	112	0.00	29.917 
17:15	53.6	53.6	53.6	67	42.9	4	7	112	0.00	29.916 
17:20	53.6	53.6	53.6	66	42.5	4	10	112	0.00	29.911 
17:25	53.3	53.3	53.3	66	42.2	5	11	112	0.00	29.911 
17:30	52.9	52.9	52.9	68	42.6	4	7	112	0.00	29.911 
17:35	52.5	52.5	52.5	68	42.2	6	11	112	0.00	29.909 
17:40	52.0	52.0	52.0	69	42.1	7	11	112	0.00	29.913 
17:45	51.7	51.7	51.7	70	42.2	5	10	90	0.00	29.909 
17:50	51.4	51.4	51.4	71	42.3	5	11	112	0.00	29.912 
17:55	51.3	51.3	51.3	70	41.9	5	11	112	0.00	29.915 
18:00	51.1	51.1	51.1	70	41.7	6	11	112	0.00	29.905 
18:05	50.8	50.8	50.8	71	41.7	6	11	112	0.00	29.900 
18:10	50.5	50.5	50.5	71	41.5	5	11	112	0.00	29.895 
18:15	50.4	50.4	50.4	71	41.4	5	12	90	0.00	29.898 
18:20	50.2	50.2	50.2	72	41.5	5	10	90	0.00	29.897 
18:25	50.1	50.1	50.1	72	41.4	4	12	112	0.00	29.891 
18:30	49.9	48.1	49.9	72	41.2	5	14	90	0.00	29.887 
18:35	49.6	47.2	49.6	72	40.9	6	13	90	0.00	29.884 
18:40	49.5	47.1	49.5	72	40.9	6	11	112	0.00	29.882 
18:45	49.4	47.0	49.4	73	41.1	6	13	112	0.00	29.874 
18:50	49.4	47.5	49.4	73	41.1	5	11	112	0.00	29.874 
18:55	49.2	46.2	49.2	73	40.9	7	15	112	0.00	29.870 
19:00	49.1	46.1	49.1	73	40.8	7	12	90	0.00	29.868 
19:05	49.1	46.6	49.1	73	40.8	6	14	90	0.00	29.867 
19:10	48.9	46.4	48.9	73	40.6	6	12	112	0.00	29.861 
19:15	48.9	46.4	48.9	74	41.0	6	11	112	0.00	29.860 
19:20	48.9	46.9	48.9	74	41.0	5	10	112	0.00	29.861 
19:25	48.8	46.2	48.8	74	40.9	6	11	90	0.00	29.857 
19:30	48.8	46.2	48.8	74	40.9	6	13	90	0.00	29.856 
19:35	48.6	46.6	48.6	75	41.0	5	10	112	0.00	29.854 
19:40	48.6	46.0	48.6	75	41.0	6	15	112	0.00	29.853 
19:45	48.5	46.5	48.5	75	40.9	5	12	90	0.00	29.855 
19:50	48.5	46.5	48.5	76	41.3	5	9	112	0.00	29.854 
19:55	48.3	46.2	48.3	76	41.1	5	12	90	0.00	29.859 
20:00	48.3	46.2	48.3	76	41.1	5	11	112	0.00	29.860 
20:05	48.2	46.8	48.2	76	41.0	4	10	90	0.00	29.860 
20:10	48.2	46.1	48.2	77	41.3	5	11	90	0.00	29.858 
20:15	48.2	46.1	48.2	77	41.3	5	12	112	0.00	29.860 
20:20	48.2	46.8	48.2	77	41.3	4	10	90	0.00	29.862 
20:25	48.2	46.8	48.2	78	41.7	4	9	112	0.00	29.862 
20:30	48.3	45.6	48.3	78	41.8	6	12	112	0.00	29.862 
20:35	48.3	46.2	48.3	79	42.1	5	9	112	0.00	29.861 
20:40	48.3	48.3	48.3	80	42.4	3	10	112	0.00	29.860 
20:45	48.3	46.2	48.3	80	42.4	5	11	112	0.00	29.858 
20:50	48.3	46.2	48.3	81	42.7	5	9	112	0.00	29.852 
20:55	48.3	46.2	48.3	81	42.7	5	10	112	0.00	29.849 
21:00	48.3	46.9	48.3	81	42.7	4	9	90	0.00	29.854 
21:05	48.3	46.9	48.3	82	43.1	4	10	90	0.00	29.846 
21:10	48.3	46.9	48.3	82	43.1	4	11	112	0.00	29.845 
21:15	48.3	46.2	48.3	83	43.4	5	11	112	0.00	29.845 
21:20	48.5	47.1	48.5	83	43.6	4	7	90	0.00	29.844 
21:25	48.5	47.1	48.5	83	43.6	4	7	90	0.00	29.845 
21:30	48.5	47.1	48.5	84	43.9	4	11	90	0.00	29.843 
21:35	48.5	46.5	48.5	84	43.9	5	10	90	0.00	29.844 
21:40	48.6	47.3	48.6	84	44.0	4	9	90	0.00	29.844 
21:45	48.6	47.3	48.6	84	44.0	4	9	90	0.00	29.842 
21:50	48.6	47.3	48.6	84	44.0	4	7	112	0.00	29.835 
21:55	48.8	46.8	48.8	85	44.5	5	9	90	0.00	29.831 
22:00	48.8	47.5	48.8	85	44.5	4	9	112	0.00	29.829 
22:05	48.8	47.5	48.8	85	44.5	4	9	112	0.00	29.824 
22:10	48.8	47.5	48.8	86	44.8	4	10	112	0.00	29.816 
22:15	48.8	46.8	48.8	87	45.1	5	10	112	0.00	29.813 
22:20	48.9	47.6	48.9	87	45.2	4	9	90	0.00	29.811 
22:25	48.9	48.9	48.9	88	45.5	3	10	90	0.00	29.812 
22:30	48.9	46.9	48.9	88	45.5	5	11	112	0.00	29.811 
22:35	48.9	46.9	48.9	88	45.5	5	9	90	0.00	29.810 
22:40	48.9	47.6	48.9	88	45.5	4	7	112	0.00	29.808 
22:45	48.9	47.6	48.9	89	45.8	4	7	112	0.00	29.804 
22:50	48.9	47.6	48.9	89	45.8	4	9	90	0.00	29.802 
22:55	48.9	48.9	48.9	89	45.8	3	6	112	0.00	29.802 
23:00	49.1	47.8	49.1	90	46.3	4	7	112	0.00	29.801 
23:05	49.1	49.1	49.1	90	46.3	3	10	112	0.00	29.800 
23:10	49.1	47.8	49.1	91	46.6	4	8	112	0.00	29.797 
23:15	49.2	47.9	49.2	91	46.7	4	9	112	0.00	29.797 
23:20	49.2	49.2	49.2	92	47.0	3	6	112	0.00	29.796 
23:25	49.4	48.2	49.4	92	47.2	4	7	112	0.00	29.796 
23:30	49.4	48.2	49.4	92	47.2	4	9	112	0.00	29.791 
23:35	49.4	48.2	49.4	93	47.5	4	8	90	0.00	29.788 
23:40	49.4	49.4	49.4	93	47.5	3	7	112	0.00	29.787 
23:45	49.4	49.4	49.4	93	47.5	3	7	90	0.00	29.789 
23:50	49.5	49.5	49.5	94	47.8	3	6	90	0.00	29.780 
23:55	49.5	49.5	49.5	94	47.8	3	6	112	0.00	29.776 

CoCoRaHS
IN-AL-39
A2 Web Hosting
Creative Commons License
GoDaddy
Look for:

loaded 2017-12-13 19:46:12 • last modified 2010-11-18 10:43:29
Privacy PolicyDisclaimer
• wx.awcolley.com is powered by PmWiki v.2002016 •
• all content (unless otherwise noted) © 2017 A W Colley